Time;durP1;ratioP1;P1;durP2;ratioP2;P2;SDS_P1;SDS_P2;PMS_P1;PMS_P2;Temp;Humidity;BMP_temperature;BMP_pressure;BME280_temperature;BME280_humidity;BME280_pressure;Samples;Min_cycle;Max_cycle;Signal;HPM_P1;HPM_P2
2022/06/10 03:01:20;;;;;;;2.10;0.70;;;24.50;43.10;;;;;;5641467;23;45299;-62
2022/06/10 03:04:00;;;;;;;1.00;0.70;;;24.50;43.10;;;;;;4979448;28;44818;-62
2022/06/10 03:06:57;;;;;;;1.80;0.70;;;24.50;43.10;;;;;;4953829;28;45046;-63
2022/06/10 03:09:44;;;;;;;1.02;0.70;;;24.40;43.10;;;;;;4994224;28;46612;-63
2022/06/10 03:12:25;;;;;;;1.77;1.00;;;24.40;43.10;;;;;;4964585;28;45066;-63
2022/06/10 03:15:08;;;;;;;1.33;0.60;;;24.40;43.10;;;;;;4958286;28;45207;-62
2022/06/10 03:17:46;;;;;;;0.60;0.60;;;24.40;43.00;;;;;;4973465;28;45288;-61
2022/06/10 03:20:30;;;;;;;3.30;0.70;;;24.40;43.00;;;;;;4982139;28;45467;-62
2022/06/10 03:23:13;;;;;;;1.58;1.00;;;24.40;43.10;;;;;;4972444;28;44925;-63
2022/06/10 03:25:50;;;;;;;0.73;0.63;;;24.40;43.00;;;;;;4959647;28;45044;-63
2022/06/10 03:28:26;;;;;;;1.35;0.55;;;24.40;43.10;;;;;;4957340;28;45141;-63
2022/06/10 03:31:03;;;;;;;0.73;0.70;;;24.40;43.10;;;;;;4964101;28;45174;-63
2022/06/10 03:33:43;;;;;;;0.68;0.60;;;24.40;43.10;;;;;;4957710;28;45229;-63
2022/06/10 03:36:16;;;;;;;2.75;0.75;;;24.30;43.00;;;;;;4946048;28;45453;-62
2022/06/10 03:38:46;;;;;;;0.95;0.65;;;24.40;43.10;;;;;;4933540;28;45275;-62
2022/06/10 03:41:33;;;;;;;0.55;0.55;;;24.40;43.10;;;;;;4950321;28;46329;-63
2022/06/10 03:44:01;;;;;;;1.08;0.60;;;24.40;43.00;;;;;;4956468;28;44703;-62
2022/06/10 03:46:30;;;;;;;1.33;0.75;;;24.30;43.10;;;;;;4933238;28;45257;-63
2022/06/10 03:48:55;;;;;;;0.80;0.63;;;24.30;43.00;;;;;;4964672;28;44983;-62
2022/06/10 03:51:21;;;;;;;1.90;0.75;;;24.30;43.10;;;;;;4965177;28;45789;-62
2022/06/10 03:53:48;;;;;;;0.93;0.73;;;24.30;43.00;;;;;;4948598;28;45661;-62
2022/06/10 03:56:20;;;;;;;1.08;0.63;;;24.30;43.00;;;;;;4981415;28;44750;-62
2022/06/10 03:58:45;;;;;;;0.95;0.80;;;24.30;43.00;;;;;;4946824;28;45325;-62
2022/06/10 04:01:11;;;;;;;0.68;0.50;;;24.30;43.00;;;;;;4969416;28;45253;-62
2022/06/10 04:03:36;;;;;;;1.15;0.77;;;24.30;43.10;;;;;;4983034;28;44949;-62
2022/06/10 04:06:02;;;;;;;1.20;0.68;;;24.30;43.10;;;;;;4966527;28;44794;-61
2022/06/10 04:08:28;;;;;;;0.70;0.70;;;24.30;43.10;;;;;;4982716;28;45265;-64
2022/06/10 04:10:53;;;;;;;1.60;0.60;;;24.30;43.10;;;;;;4985442;28;45938;-62
2022/06/10 04:13:20;;;;;;;0.70;0.70;;;24.30;43.10;;;;;;4979537;28;44774;-62
2022/06/10 04:15:46;;;;;;;0.77;0.60;;;24.30;43.10;;;;;;4985961;28;44782;-63
2022/06/10 04:18:12;;;;;;;1.42;0.90;;;24.30;43.10;;;;;;4947051;28;45106;-63
2022/06/10 04:20:38;;;;;;;1.70;0.80;;;24.30;43.10;;;;;;4951304;28;46139;-62
2022/06/10 04:23:04;;;;;;;3.08;1.10;;;24.20;43.00;;;;;;4965494;28;45385;-63
2022/06/10 04:25:31;;;;;;;1.20;0.70;;;24.20;43.10;;;;;;4967188;28;45278;-62
2022/06/10 04:27:56;;;;;;;0.90;0.60;;;24.20;43.10;;;;;;4966766;28;44980;-62
2022/06/10 04:30:35;;;;;;;1.40;0.98;;;24.20;43.10;;;;;;4950902;23;45447;-73
2022/06/10 04:33:01;;;;;;;0.50;0.50;;;24.20;43.10;;;;;;4939311;28;45273;-72
2022/06/10 04:35:27;;;;;;;1.58;0.80;;;24.20;43.20;;;;;;4901730;28;45448;-72
2022/06/10 04:37:53;;;;;;;0.60;0.60;;;24.20;43.20;;;;;;4927879;28;45678;-73
2022/06/10 04:40:22;;;;;;;2.08;0.70;;;24.20;43.20;;;;;;4936765;28;45375;-72
2022/06/10 04:42:49;;;;;;;1.48;0.73;;;24.20;43.20;;;;;;4908963;28;45349;-73
2022/06/10 04:45:17;;;;;;;0.93;0.60;;;24.20;43.20;;;;;;4911526;28;45293;-72
2022/06/10 04:47:42;;;;;;;1.23;0.70;;;24.20;43.30;;;;;;4926243;28;45807;-71
2022/06/10 04:50:09;;;;;;;3.33;0.80;;;24.20;43.30;;;;;;4935188;28;46265;-72
2022/06/10 04:52:35;;;;;;;1.75;0.77;;;24.20;43.40;;;;;;4922602;28;45310;-73
2022/06/10 04:55:01;;;;;;;2.38;0.80;;;24.20;44.00;;;;;;4922424;28;45614;-73
2022/06/10 04:57:27;;;;;;;1.15;0.80;;;24.20;43.40;;;;;;4941035;28;44815;-73
2022/06/10 04:59:52;;;;;;;2.95;0.82;;;24.20;43.40;;;;;;4938720;28;45339;-73
2022/06/10 05:02:18;;;;;;;0.63;0.60;;;24.10;43.50;;;;;;4922375;28;45249;-73
2022/06/10 05:04:44;;;;;;;1.20;0.70;;;24.10;43.60;;;;;;4933003;28;45571;-72
2022/06/10 05:07:09;;;;;;;3.40;0.60;;;24.10;43.60;;;;;;4909367;28;45723;-73
2022/06/10 05:09:35;;;;;;;1.55;0.70;;;24.10;43.70;;;;;;4940175;28;45481;-73
2022/06/10 05:12:01;;;;;;;1.38;0.80;;;24.10;43.70;;;;;;4907268;28;45267;-72
2022/06/10 05:14:26;;;;;;;1.23;0.90;;;24.20;43.80;;;;;;4908984;28;45564;-73
2022/06/10 05:16:52;;;;;;;1.05;0.80;;;24.20;43.90;;;;;;4925805;28;45662;-73
2022/06/10 05:19:18;;;;;;;2.47;0.80;;;24.20;43.80;;;;;;4923285;28;46346;-73
2022/06/10 05:21:43;;;;;;;1.42;0.70;;;24.30;43.80;;;;;;4943513;28;45772;-72
2022/06/10 05:24:09;;;;;;;2.05;1.00;;;24.30;43.70;;;;;;4938527;28;45564;-73
2022/06/10 05:26:34;;;;;;;1.50;0.90;;;24.40;43.60;;;;;;4946845;28;45463;-73
2022/06/10 05:29:00;;;;;;;1.58;0.70;;;24.40;44.00;;;;;;4916331;28;45683;-73
2022/06/10 05:31:26;;;;;;;0.68;0.68;;;24.50;43.30;;;;;;4931402;28;45285;-73
2022/06/10 05:36:36;;;;;;;1.38;0.80;;;24.60;43.20;;;;;;4933644;28;45106;-74
2022/06/10 05:39:02;;;;;;;0.77;0.70;;;24.70;43.10;;;;;;4949243;28;46139;-74
2022/06/10 05:44:12;;;;;;;1.38;0.90;;;24.70;43.10;;;;;;4947601;28;45289;-74
2022/06/10 05:46:38;;;;;;;2.45;0.70;;;24.70;43.10;;;;;;4934540;28;45560;-74
2022/06/10 05:49:03;;;;;;;0.68;0.68;;;24.70;43.20;;;;;;4925948;28;47109;-74
2022/06/10 05:51:29;;;;;;;0.88;0.60;;;24.70;43.30;;;;;;4932802;28;46294;-74
2022/06/10 05:53:54;;;;;;;0.68;0.50;;;24.70;43.40;;;;;;4952061;28;44982;-73
2022/06/10 05:56:20;;;;;;;1.95;0.75;;;24.70;43.40;;;;;;4932018;28;45488;-73
2022/06/10 05:58:46;;;;;;;0.70;0.70;;;24.60;43.50;;;;;;4941022;28;45895;-78
2022/06/10 06:01:12;;;;;;;1.50;1.02;;;24.60;43.50;;;;;;4932602;28;45531;-78
2022/06/10 06:03:38;;;;;;;3.20;1.65;;;24.60;43.50;;;;;;4935077;28;45527;-73
2022/06/10 06:06:03;;;;;;;4.38;1.70;;;24.60;43.60;;;;;;4953373;28;45339;-75
2022/06/10 06:08:29;;;;;;;5.30;1.92;;;24.60;43.60;;;;;;4933851;28;45129;-73
2022/06/10 06:10:54;;;;;;;3.65;1.40;;;24.60;43.70;;;;;;4946809;28;45119;-76
2022/06/10 06:13:20;;;;;;;4.85;1.45;;;24.60;43.80;;;;;;4935741;28;45483;-75
2022/06/10 06:15:46;;;;;;;4.10;1.45;;;24.50;43.90;;;;;;4953078;28;45723;-73
2022/06/10 06:18:12;;;;;;;2.17;1.30;;;24.50;44.00;;;;;;4952340;28;45103;-78
2022/06/10 06:20:37;;;;;;;3.00;1.65;;;24.50;44.00;;;;;;4929530;28;45571;-72
2022/06/10 06:23:06;;;;;;;2.28;1.42;;;24.50;44.10;;;;;;4928071;28;45514;-73
2022/06/10 06:25:31;;;;;;;4.13;1.83;;;24.50;44.10;;;;;;4926206;28;45192;-73
2022/06/10 06:27:57;;;;;;;2.45;1.27;;;24.50;44.20;;;;;;4937674;28;47162;-76
2022/06/10 06:30:30;;;;;;;2.38;1.40;;;24.60;44.20;;;;;;4929108;28;45501;-72
2022/06/10 06:32:56;;;;;;;3.03;1.40;;;24.60;44.30;;;;;;4949745;28;45031;-72
2022/06/10 06:35:22;;;;;;;1.20;0.90;;;24.50;44.20;;;;;;4933619;28;45598;-73
2022/06/10 06:37:48;;;;;;;1.67;1.20;;;24.60;44.30;;;;;;4946441;28;46166;-72
2022/06/10 06:40:14;;;;;;;2.13;1.13;;;24.60;44.30;;;;;;4932428;28;44895;-74
2022/06/10 06:42:39;;;;;;;2.63;1.10;;;24.60;44.40;;;;;;4946992;28;45001;-72
2022/06/10 06:45:05;;;;;;;2.25;1.40;;;24.60;44.40;;;;;;4924977;28;45019;-73
2022/06/10 06:47:31;;;;;;;2.28;1.30;;;24.60;44.40;;;;;;4934714;28;46317;-74
2022/06/10 06:49:57;;;;;;;1.98;1.30;;;24.60;44.30;;;;;;4937798;28;45579;-77
2022/06/10 06:52:22;;;;;;;1.95;1.35;;;24.70;44.40;;;;;;4951159;28;45581;-75
2022/06/10 06:54:48;;;;;;;1.60;0.98;;;24.70;44.30;;;;;;4938348;28;44735;-75
2022/06/10 06:57:14;;;;;;;5.53;1.20;;;24.70;44.20;;;;;;4947903;28;45497;-72
2022/06/10 06:59:39;;;;;;;4.00;1.20;;;24.70;44.20;;;;;;4935259;28;44964;-74
2022/06/10 07:02:05;;;;;;;3.03;1.48;;;24.80;44.20;;;;;;4936272;28;45396;-76
2022/06/10 07:04:31;;;;;;;2.95;1.10;;;24.80;44.20;;;;;;4928724;28;45697;-73
2022/06/10 07:06:56;;;;;;;3.08;1.17;;;24.80;44.20;;;;;;4909972;28;47274;-77
2022/06/10 07:09:22;;;;;;;3.85;0.98;;;24.80;44.30;;;;;;4947468;28;45089;-72
2022/06/10 07:11:48;;;;;;;3.00;1.05;;;24.80;44.20;;;;;;4953742;28;45038;-77
2022/06/10 07:14:13;;;;;;;2.05;1.00;;;24.80;44.30;;;;;;4935626;28;45480;-72
2022/06/10 07:16:39;;;;;;;1.85;1.30;;;24.80;44.20;;;;;;4944333;28;45315;-75
2022/06/10 07:19:06;;;;;;;2.90;1.27;;;24.80;44.20;;;;;;4950671;28;45633;-78
2022/06/10 07:21:32;;;;;;;2.95;1.20;;;24.80;44.10;;;;;;4935285;28;45467;-72
2022/06/10 07:23:57;;;;;;;2.17;1.08;;;24.90;44.20;;;;;;4935690;28;45261;-78
2022/06/10 07:26:23;;;;;;;1.35;1.00;;;24.90;44.10;;;;;;4932228;28;46131;-75
2022/06/10 07:28:49;;;;;;;1.40;0.98;;;24.90;44.10;;;;;;4948578;28;45720;-76
2022/06/10 07:31:15;;;;;;;1.70;1.20;;;24.90;44.00;;;;;;4943744;28;45462;-73
2022/06/10 07:33:41;;;;;;;3.22;1.10;;;24.90;43.70;;;;;;4941707;28;45614;-78
2022/06/10 07:36:07;;;;;;;1.42;0.80;;;24.90;43.60;;;;;;4943691;28;46509;-73
2022/06/10 07:38:34;;;;;;;1.60;1.08;;;25.00;43.60;;;;;;4952694;28;45245;-74
2022/06/10 07:43:44;;;;;;;1.67;1.00;;;25.00;43.60;;;;;;4926996;28;45480;-79
2022/06/10 07:46:12;;;;;;;5.57;1.20;;;25.00;43.40;;;;;;4933839;28;45643;-74
2022/06/10 07:48:38;;;;;;;2.25;0.90;;;25.00;43.40;;;;;;4946128;28;45511;-72
2022/06/10 07:51:03;;;;;;;2.72;1.10;;;25.00;43.40;;;;;;4935502;28;44992;-79
2022/06/10 07:53:30;;;;;;;1.23;0.77;;;25.00;43.50;;;;;;4947970;28;45223;-78
2022/06/10 07:55:56;;;;;;;2.10;0.80;;;25.00;43.50;;;;;;4943339;28;45609;-72
2022/06/10 07:58:24;;;;;;;1.50;0.90;;;25.00;43.50;;;;;;4949732;28;45035;-76
2022/06/10 08:00:51;;;;;;;2.47;1.05;;;25.00;43.50;;;;;;4948773;28;44755;-73
2022/06/10 08:03:17;;;;;;;1.05;0.90;;;25.00;43.40;;;;;;4950406;28;45122;-72
2022/06/10 08:05:43;;;;;;;1.77;0.70;;;25.10;43.40;;;;;;4936850;28;46309;-73
2022/06/10 08:08:10;;;;;;;0.77;0.75;;;25.10;43.40;;;;;;4939580;28;45268;-73
2022/06/10 08:10:36;;;;;;;1.83;0.82;;;25.00;43.40;;;;;;4939617;28;45658;-78
2022/06/10 08:13:04;;;;;;;1.23;0.98;;;25.10;43.40;;;;;;4945048;28;45255;-78
2022/06/10 08:15:29;;;;;;;2.60;1.00;;;25.10;43.40;;;;;;4946481;28;46526;-75
2022/06/10 08:17:56;;;;;;;3.30;1.10;;;25.10;43.40;;;;;;4928796;28;45271;-77
2022/06/10 08:23:15;;;;;;;2.70;1.00;;;25.10;43.20;;;;;;4941840;28;45450;-73
2022/06/10 08:25:41;;;;;;;3.38;1.15;;;25.10;43.00;;;;;;4940778;28;45517;-78
2022/06/10 08:28:06;;;;;;;2.72;0.95;;;25.10;42.90;;;;;;4939712;28;45600;-78
2022/06/10 08:30:32;;;;;;;3.13;1.20;;;25.00;42.90;;;;;;4949834;28;45269;-78
2022/06/10 08:32:59;;;;;;;1.63;0.80;;;25.00;42.80;;;;;;4953894;28;45301;-72
2022/06/10 08:35:25;;;;;;;2.15;0.98;;;25.00;42.70;;;;;;4948585;28;45092;-73
2022/06/10 08:37:53;;;;;;;1.55;0.77;;;25.10;42.50;;;;;;4950840;28;45523;-73
2022/06/10 08:40:35;;;;;;;3.22;0.90;;;25.10;42.40;;;;;;4943313;28;46129;-76
2022/06/10 08:43:13;;;;;;;1.10;0.90;;;25.10;42.40;;;;;;4944744;28;45426;-76
2022/06/10 08:45:50;;;;;;;1.27;0.80;;;25.10;42.20;;;;;;4941647;28;46100;-71
2022/06/10 08:48:20;;;;;;;2.33;0.82;;;25.10;42.30;;;;;;4953005;28;44854;-77
2022/06/10 08:50:58;;;;;;;2.05;0.90;;;25.10;42.20;;;;;;4961261;28;44802;-73
2022/06/10 08:53:49;;;;;;;1.38;1.00;;;25.10;42.20;;;;;;4959251;28;45467;-77
2022/06/10 08:56:34;;;;;;;1.05;0.70;;;25.10;42.00;;;;;;4957105;28;47350;-73
2022/06/10 08:59:04;;;;;;;1.65;1.08;;;25.10;41.90;;;;;;4942786;28;44763;-75
2022/06/10 09:01:43;;;;;;;4.20;1.00;;;25.10;41.90;;;;;;4945723;28;45588;-73
2022/06/10 09:04:31;;;;;;;0.57;0.50;;;25.10;41.60;;;;;;4945332;28;45642;-75
2022/06/10 09:06:59;;;;;;;1.17;0.65;;;25.10;41.40;;;;;;4951963;28;47030;-77
2022/06/10 09:09:26;;;;;;;0.85;0.57;;;25.10;41.50;;;;;;4932931;28;45314;-71
2022/06/10 09:11:51;;;;;;;1.63;0.80;;;25.10;41.40;;;;;;4931888;28;45321;-79
2022/06/10 09:14:18;;;;;;;1.05;0.88;;;25.10;41.40;;;;;;4968702;28;45544;-76
2022/06/10 09:17:01;;;;;;;0.60;0.52;;;25.10;41.10;;;;;;4916549;28;47461;-75
2022/06/10 09:19:39;;;;;;;;;;;25.10;41.10;;;;;;4947313;28;44646;-73
2022/06/10 09:22:13;;;;;;;1.20;0.70;;;25.20;40.70;;;;;;4946563;28;45257;-75
2022/06/10 09:24:48;;;;;;;2.72;0.88;;;25.10;41.00;;;;;;4932728;28;45212;-76
2022/06/10 09:27:25;;;;;;;1.85;0.77;;;25.20;40.70;;;;;;4961437;28;46513;-73
2022/06/10 09:29:51;;;;;;;0.90;0.50;;;25.20;40.80;;;;;;4923826;28;45233;-75
2022/06/10 09:32:39;;;;;;;3.40;0.60;;;25.20;40.80;;;;;;4954108;28;45089;-75
2022/06/10 09:35:16;;;;;;;0.60;0.60;;;25.20;40.90;;;;;;4930969;28;45146;-71
2022/06/10 09:38:05;;;;;;;1.25;0.50;;;25.20;41.00;;;;;;4946693;28;45814;-71
2022/06/10 09:40:51;;;;;;;1.27;0.50;;;25.20;40.70;;;;;;4939448;28;45275;-75
2022/06/10 09:43:26;;;;;;;1.38;0.65;;;25.30;40.40;;;;;;4943442;28;45536;-75
2022/06/10 09:45:58;;;;;;;2.15;0.70;;;25.30;40.50;;;;;;4932513;28;45095;-75
2022/06/10 09:49:01;;;;;;;1.83;0.70;;;25.30;40.30;;;;;;4943227;28;45591;-72
2022/06/10 09:51:31;;;;;;;1.10;0.60;;;25.30;40.00;;;;;;4959996;28;44927;-71
2022/06/10 09:53:57;;;;;;;2.17;0.80;;;25.30;40.40;;;;;;4942032;28;45526;-77
2022/06/10 09:56:55;;;;;;;1.50;0.77;;;25.30;40.50;;;;;;4962113;28;45651;-77
2022/06/10 09:59:33;;;;;;;0.93;0.70;;;25.40;40.10;;;;;;4913273;28;45491;-74
2022/06/10 10:02:16;;;;;;;0.90;0.60;;;25.40;40.30;;;;;;4929135;28;45699;-75
2022/06/10 10:04:53;;;;;;;0.70;0.60;;;25.40;40.30;;;;;;4930204;28;45560;-75
2022/06/10 10:07:33;;;;;;;2.42;0.88;;;25.40;40.30;;;;;;4913795;28;45477;-74
2022/06/10 10:10:13;;;;;;;2.05;0.90;;;25.40;40.20;;;;;;4955002;28;46023;-75
2022/06/10 10:12:46;;;;;;;1.88;0.80;;;25.40;40.10;;;;;;4949864;28;45335;-75
2022/06/10 10:15:33;;;;;;;2.65;0.60;;;25.40;40.20;;;;;;4914829;28;45744;-74
2022/06/10 10:18:15;;;;;;;2.50;0.70;;;25.40;40.10;;;;;;4929878;28;45297;-75
2022/06/10 10:21:02;;;;;;;0.93;0.60;;;25.50;40.30;;;;;;4942534;28;46712;-72
2022/06/10 10:23:55;;;;;;;1.38;0.70;;;25.40;40.00;;;;;;4953795;28;45303;-72
2022/06/10 10:26:25;;;;;;;1.00;0.70;;;25.50;40.00;;;;;;4945683;28;45333;-72
2022/06/10 10:29:24;;;;;;;0.70;0.60;;;25.40;40.10;;;;;;4936930;28;45790;-72
2022/06/10 10:31:55;;;;;;;3.08;0.80;;;25.50;39.90;;;;;;4948131;28;46177;-72
2022/06/10 10:34:25;;;;;;;2.45;0.55;;;25.50;40.00;;;;;;4952710;28;45783;-71
2022/06/10 10:36:59;;;;;;;3.22;0.80;;;25.50;40.20;;;;;;4927212;28;45461;-71
2022/06/10 10:39:34;;;;;;;0.90;0.60;;;25.50;40.10;;;;;;4941730;28;45689;-72
2022/06/10 10:42:14;;;;;;;2.85;0.63;;;25.50;40.00;;;;;;4939885;28;46138;-72
2022/06/10 10:44:51;;;;;;;0.68;0.60;;;25.60;39.60;;;;;;4937531;28;45309;-72
2022/06/10 10:47:24;;;;;;;0.93;0.70;;;25.60;39.60;;;;;;4968729;28;45127;-72
2022/06/10 10:49:53;;;;;;;;;;;25.60;39.60;;;;;;4947371;28;45438;-71
2022/06/10 10:52:20;;;;;;;2.40;0.75;;;25.60;39.10;;;;;;4952813;28;46326;-71
2022/06/10 10:54:48;;;;;;;6.22;0.73;;;25.60;39.70;;;;;;4939123;28;45491;-71
2022/06/10 10:57:29;;;;;;;1.10;0.50;;;25.70;39.60;;;;;;4950298;28;45637;-71
2022/06/10 11:00:03;;;;;;;1.25;0.65;;;25.70;39.20;;;;;;4949801;28;45634;-72
2022/06/10 11:02:30;;;;;;;;;;;25.70;39.00;;;;;;4954210;28;45729;-72
2022/06/10 11:05:17;;;;;;;1.08;0.45;;;25.70;38.20;;;;;;4942108;28;45218;-71
2022/06/10 11:07:43;;;;;;;1.42;0.50;;;25.70;38.50;;;;;;4960440;28;44765;-71
2022/06/10 11:10:20;;;;;;;0.63;0.38;;;25.80;39.00;;;;;;4937155;28;45562;-71
2022/06/10 11:12:46;;;;;;;3.97;0.93;;;25.80;38.60;;;;;;4936587;28;45310;-72
2022/06/10 11:15:26;;;;;;;0.98;0.70;;;25.80;39.00;;;;;;4938893;28;45366;-72
2022/06/10 11:17:51;;;;;;;1.10;0.50;;;25.80;38.80;;;;;;4942757;28;45717;-72
2022/06/10 11:20:27;;;;;;;1.27;0.70;;;25.80;39.10;;;;;;4929687;28;45924;-73
2022/06/10 11:23:18;;;;;;;1.13;0.50;;;25.90;39.10;;;;;;4941698;28;45702;-73
2022/06/10 11:25:45;;;;;;;1.02;0.70;;;25.90;38.90;;;;;;4918229;28;45306;-73
2022/06/10 11:28:21;;;;;;;1.70;0.60;;;25.90;39.30;;;;;;4916484;28;44914;-73
2022/06/10 11:30:49;;;;;;;1.33;0.57;;;25.90;39.20;;;;;;4922389;28;45471;-73
2022/06/10 11:33:22;;;;;;;1.58;0.60;;;25.90;39.50;;;;;;4926192;28;45636;-72
2022/06/10 11:36:11;;;;;;;1.00;0.47;;;25.90;39.40;;;;;;4920417;28;45701;-72
2022/06/10 11:38:39;;;;;;;1.05;0.70;;;25.90;39.30;;;;;;4929315;28;45791;-72
2022/06/10 11:41:27;;;;;;;0.82;0.50;;;25.90;39.60;;;;;;4919673;28;45237;-72
2022/06/10 11:44:02;;;;;;;1.23;0.50;;;25.90;39.40;;;;;;4912985;28;46100;-73
2022/06/10 11:46:38;;;;;;;0.88;0.52;;;25.90;39.70;;;;;;4917261;28;45368;-73
2022/06/10 11:49:22;;;;;;;1.20;0.50;;;26.00;39.80;;;;;;4941501;28;45710;-73
2022/06/10 11:51:54;;;;;;;1.25;0.57;;;26.00;39.70;;;;;;4942776;28;45771;-73
2022/06/10 11:54:26;;;;;;;1.00;0.55;;;26.00;39.70;;;;;;4933033;28;45292;-73
2022/06/10 11:59:57;;;;;;;0.73;0.60;;;26.10;39.80;;;;;;4932753;28;45419;-74
2022/06/10 12:02:22;;;;;;;3.70;0.70;;;26.10;39.80;;;;;;4935596;28;45558;-73
2022/06/10 12:04:57;;;;;;;0.75;0.50;;;26.10;39.80;;;;;;4928168;28;46714;-72
2022/06/10 12:07:23;;;;;;;0.60;0.40;;;26.20;39.80;;;;;;4907207;28;45953;-72
2022/06/10 12:09:51;;;;;;;0.68;0.40;;;26.20;39.90;;;;;;4933523;28;45745;-73
2022/06/10 12:12:29;;;;;;;0.95;0.50;;;26.20;39.90;;;;;;4944992;28;45566;-73
2022/06/10 12:14:56;;;;;;;0.52;0.50;;;26.20;39.90;;;;;;4917838;28;47118;-73
2022/06/10 12:17:24;;;;;;;1.05;0.45;;;26.20;40.00;;;;;;4933423;28;45132;-72
2022/06/10 12:20:06;;;;;;;1.42;0.45;;;26.20;40.00;;;;;;4945835;28;44699;-73
2022/06/10 12:22:33;;;;;;;0.98;0.52;;;26.30;40.00;;;;;;4923651;28;44725;-73
2022/06/10 12:24:58;;;;;;;1.77;0.50;;;26.30;40.10;;;;;;4935867;28;45450;-73
2022/06/10 12:27:43;;;;;;;0.43;0.35;;;26.30;40.10;;;;;;4946132;28;45281;-73
2022/06/10 12:30:11;;;;;;;1.40;0.60;;;26.30;40.00;;;;;;4933647;28;44741;-73
2022/06/10 12:32:50;;;;;;;0.50;0.50;;;26.30;40.20;;;;;;4948087;28;45523;-74
2022/06/10 12:35:21;;;;;;;0.82;0.50;;;26.30;40.10;;;;;;4931881;28;45073;-73
2022/06/10 12:37:50;;;;;;;0.57;0.57;;;26.30;40.20;;;;;;4919038;28;45229;-73
2022/06/10 12:40:28;;;;;;;0.88;0.55;;;26.40;40.20;;;;;;4933896;28;45325;-73
2022/06/10 12:43:00;;;;;;;1.08;0.47;;;26.40;40.20;;;;;;4921223;28;45270;-73
2022/06/10 12:45:30;;;;;;;1.80;0.80;;;26.40;40.20;;;;;;4918144;28;47163;-73
2022/06/10 12:47:58;;;;;;;0.95;0.50;;;26.40;40.40;;;;;;4919824;28;45535;-73
2022/06/10 12:50:33;;;;;;;1.15;0.50;;;26.50;40.40;;;;;;4916519;28;45562;-74
2022/06/10 12:53:50;;;;;;;0.50;0.43;;;26.50;40.30;;;;;;4937681;28;45475;-73
2022/06/10 12:56:17;;;;;;;2.90;0.63;;;26.50;40.30;;;;;;4895822;28;47201;-73
2022/06/10 12:59:11;;;;;;;0.80;0.60;;;26.50;40.40;;;;;;4936838;28;45207;-73
2022/06/10 13:01:37;;;;;;;0.70;0.47;;;26.50;40.40;;;;;;4923515;28;45130;-73
2022/06/10 13:04:02;;;;;;;0.70;0.50;;;26.50;40.50;;;;;;4948264;28;45323;-73
2022/06/10 13:06:41;;;;;;;0.80;0.60;;;26.60;40.50;;;;;;4935548;28;46481;-73
2022/06/10 13:09:10;;;;;;;0.77;0.63;;;26.60;40.40;;;;;;4942498;28;45465;-73
2022/06/10 13:11:40;;;;;;;1.27;0.60;;;26.60;40.50;;;;;;4949177;28;45739;-72
2022/06/10 13:14:09;;;;;;;0.60;0.60;;;26.60;40.50;;;;;;4933094;28;45079;-73
2022/06/10 13:16:40;;;;;;;1.10;0.70;;;26.60;40.60;;;;;;4933485;28;46912;-73
2022/06/10 13:19:27;;;;;;;0.60;0.60;;;26.70;40.60;;;;;;4907916;28;45359;-73
2022/06/10 13:21:53;;;;;;;1.00;0.70;;;26.70;40.50;;;;;;4919953;28;45301;-73
2022/06/10 13:24:20;;;;;;;0.60;0.50;;;26.70;40.50;;;;;;4936308;28;45769;-73
2022/06/10 13:26:45;;;;;;;0.50;0.50;;;26.70;40.50;;;;;;4939173;28;45036;-73
2022/06/10 13:29:13;;;;;;;0.65;0.50;;;26.70;40.50;;;;;;4935694;28;45278;-73
2022/06/10 13:31:46;;;;;;;0.73;0.40;;;26.70;40.60;;;;;;4938221;28;45310;-73
2022/06/10 13:34:27;;;;;;;0.73;0.60;;;26.70;40.60;;;;;;4924165;28;45403;-73
2022/06/10 13:37:18;;;;;;;1.50;0.73;;;26.70;40.70;;;;;;4938978;28;45911;-74
2022/06/10 13:39:45;;;;;;;0.85;0.60;;;26.70;40.60;;;;;;4917113;28;45298;-73
2022/06/10 13:42:29;;;;;;;0.70;0.65;;;26.80;40.70;;;;;;4926465;28;44830;-73
2022/06/10 13:44:56;;;;;;;0.95;0.65;;;26.80;40.60;;;;;;4943451;28;45278;-73
2022/06/10 13:47:28;;;;;;;0.63;0.40;;;26.80;40.70;;;;;;4937501;28;45297;-73
2022/06/10 13:52:49;;;;;;;1.13;0.60;;;26.80;40.60;;;;;;4949560;28;45841;-73
2022/06/10 13:55:35;;;;;;;0.98;0.70;;;26.80;40.70;;;;;;4940608;28;45453;-73
2022/06/10 13:58:15;;;;;;;0.70;0.50;;;26.90;40.70;;;;;;4941784;28;47103;-73
2022/06/10 14:00:54;;;;;;;0.73;0.50;;;26.90;40.80;;;;;;4934024;28;44840;-73
2022/06/10 14:03:39;;;;;;;0.45;0.43;;;26.80;40.80;;;;;;4937905;28;44666;-73
2022/06/10 14:06:21;;;;;;;1.45;0.55;;;26.90;40.70;;;;;;4928542;28;45361;-74
2022/06/10 14:08:50;;;;;;;0.70;0.50;;;26.80;40.70;;;;;;4913983;28;45526;-72
2022/06/10 14:11:22;;;;;;;0.68;0.50;;;26.90;40.90;;;;;;4926882;28;45610;-72
2022/06/10 14:13:52;;;;;;;0.93;0.80;;;26.90;40.90;;;;;;4918929;28;45344;-73
2022/06/10 14:16:18;;;;;;;0.73;0.68;;;26.90;40.90;;;;;;4936507;28;45325;-73
2022/06/10 14:18:44;;;;;;;0.60;0.57;;;26.90;40.90;;;;;;4907469;28;47281;-73
2022/06/10 14:21:09;;;;;;;0.60;0.60;;;26.90;40.90;;;;;;4923280;28;45280;-73
2022/06/10 14:23:36;;;;;;;0.70;0.70;;;27.00;40.90;;;;;;4934699;28;45284;-74
2022/06/10 14:26:04;;;;;;;0.52;0.52;;;27.00;40.90;;;;;;4942370;28;45445;-73
2022/06/10 14:28:30;;;;;;;0.63;0.60;;;27.00;40.80;;;;;;4934317;28;46397;-73
2022/06/10 14:31:00;;;;;;;1.02;0.63;;;27.00;40.80;;;;;;4916987;28;45292;-73
2022/06/10 14:33:31;;;;;;;2.85;0.60;;;27.00;40.80;;;;;;4906823;28;45294;-74
2022/06/10 14:36:21;;;;;;;0.40;0.40;;;27.00;40.80;;;;;;4911744;28;45179;-73
2022/06/10 14:39:14;;;;;;;1.88;0.73;;;27.10;40.80;;;;;;4949311;28;45553;-73
2022/06/10 14:41:57;;;;;;;0.90;0.75;;;27.10;40.80;;;;;;4942534;28;45245;-71
2022/06/10 14:44:26;;;;;;;0.85;0.60;;;27.10;40.80;;;;;;4936673;28;45275;-70
2022/06/10 14:47:13;;;;;;;2.10;0.50;;;27.00;40.80;;;;;;4924410;28;44964;-70
2022/06/10 14:49:54;;;;;;;0.88;0.60;;;27.10;40.80;;;;;;4933509;28;45984;-70
2022/06/10 14:52:43;;;;;;;1.23;0.80;;;27.10;40.80;;;;;;4934306;28;44787;-73
2022/06/10 14:55:21;;;;;;;0.77;0.50;;;27.10;40.80;;;;;;4956181;28;45340;-72
2022/06/10 14:57:54;;;;;;;1.08;0.50;;;27.20;40.80;;;;;;4945830;28;45894;-72
2022/06/10 15:00:21;;;;;;;1.25;0.70;;;27.20;40.80;;;;;;4926636;28;46984;-72
2022/06/10 15:02:46;;;;;;;1.10;0.60;;;27.10;40.80;;;;;;4922356;28;45195;-71
2022/06/10 15:07:59;;;;;;;0.98;0.60;;;27.20;40.80;;;;;;4956907;28;44862;-71
2022/06/10 15:10:25;;;;;;;0.50;0.50;;;27.20;40.80;;;;;;4948624;28;45072;-71
2022/06/10 15:12:51;;;;;;;0.57;0.50;;;27.20;40.80;;;;;;4954088;28;44783;-72
2022/06/10 15:15:17;;;;;;;0.95;0.77;;;27.20;40.80;;;;;;4944942;28;45573;-72
2022/06/10 15:17:42;;;;;;;0.73;0.60;;;27.20;40.80;;;;;;4949205;28;45373;-71
2022/06/10 15:20:10;;;;;;;1.02;0.50;;;27.20;40.80;;;;;;4945731;28;45664;-71
2022/06/10 15:22:41;;;;;;;0.40;0.40;;;27.20;40.80;;;;;;4939555;28;45456;-71
2022/06/10 15:25:28;;;;;;;0.55;0.50;;;27.20;40.80;;;;;;4944228;28;44751;-71
2022/06/10 15:27:53;;;;;;;1.10;0.57;;;27.20;40.60;;;;;;4955678;28;45676;-71
2022/06/10 15:30:22;;;;;;;4.03;0.60;;;27.20;40.80;;;;;;4943899;28;47458;-71
2022/06/10 15:32:48;;;;;;;0.88;0.50;;;27.20;40.80;;;;;;4944231;28;45300;-71
2022/06/10 15:40:45;;;;;;;0.52;0.52;;;27.20;40.80;;;;;;4946559;28;45259;-71
2022/06/10 15:43:15;;;;;;;0.70;0.60;;;27.20;40.80;;;;;;4958999;28;45221;-71
2022/06/10 15:45:41;;;;;;;0.50;0.50;;;27.20;40.70;;;;;;4929525;28;45086;-71
2022/06/10 15:48:07;;;;;;;0.80;0.80;;;27.20;40.80;;;;;;4904573;28;45405;-71
2022/06/10 15:50:32;;;;;;;1.55;0.60;;;27.20;40.80;;;;;;4908947;28;46092;-71
2022/06/10 15:52:58;;;;;;;0.40;0.38;;;27.20;40.90;;;;;;4924469;28;45911;-71
2022/06/10 15:58:18;;;;;;;1.10;0.60;;;27.20;40.80;;;;;;4932772;28;45573;-71
2022/06/10 16:00:48;;;;;;;0.60;0.50;;;27.20;40.90;;;;;;4898963;28;47135;-71
2022/06/10 16:03:15;;;;;;;0.65;0.60;;;27.20;40.90;;;;;;4913781;28;45242;-73
2022/06/10 16:05:41;;;;;;;1.00;0.60;;;27.20;40.90;;;;;;4919266;28;45457;-70
2022/06/10 16:08:08;;;;;;;0.60;0.40;;;27.20;40.90;;;;;;4917399;28;45432;-71
2022/06/10 16:10:35;;;;;;;0.60;0.60;;;27.20;40.90;;;;;;4923813;28;46837;-71
2022/06/10 16:13:01;;;;;;;0.75;0.60;;;27.20;40.90;;;;;;4929522;28;45288;-71
2022/06/10 16:15:36;;;;;;;1.08;0.60;;;27.20;40.90;;;;;;4922240;28;45835;-70
2022/06/10 16:18:02;;;;;;;0.60;0.60;;;27.20;40.90;;;;;;4929816;28;45761;-71
2022/06/10 16:20:31;;;;;;;1.17;0.73;;;27.20;40.90;;;;;;4925728;28;46075;-70
2022/06/10 16:23:01;;;;;;;0.50;0.50;;;27.20;40.90;;;;;;4924991;28;45333;-71
2022/06/10 16:25:27;;;;;;;1.23;0.70;;;27.20;40.90;;;;;;4926636;28;45675;-73
2022/06/10 16:27:56;;;;;;;0.60;0.60;;;27.20;40.90;;;;;;4929391;28;45006;-71
2022/06/10 16:30:23;;;;;;;0.77;0.60;;;27.20;40.90;;;;;;4929764;28;45982;-71
2022/06/10 16:32:49;;;;;;;0.70;0.50;;;27.20;41.00;;;;;;4922636;28;45337;-70
2022/06/10 16:35:21;;;;;;;0.50;0.50;;;27.20;40.90;;;;;;4938163;28;45109;-75
2022/06/10 16:37:49;;;;;;;0.47;0.47;;;27.20;40.90;;;;;;4904928;28;45210;-75